Ophelia, Virginia
Current Conditions -  °F | °C
As of 1:32 AM on Wednesday 28 Jan 2015 (Local Time) from KTGI Reporting Station
Clear Clear  
Wind Chill: 18°   Ceiling: Unl
Heat Index: 32°   Visibility: 10mi
Dew Point: 21°   Wind: 26mph
Humidity: 64%   Direction: 330°NNW
Pressure: 29.95"   Gusts: 35mph
Location:  37.91°N, 76.28°W
Report Text: KTGI 280632Z AUTO 33023G30KT 10SM CLR 00/M06 A2995 RMK AO1
Loading
Personal Weather Stations






























Interactive Weather Map New forecast layout! Learn more

10-Day Weather Forecast

Advertisements
Track Severe Weather on mobile